createdAt,value
2022-12-18T00:01:37.500Z,0.60
2022-12-18T00:04:07.528Z,0.60
2022-12-18T00:06:36.779Z,0.60
2022-12-18T00:09:09.351Z,0.50
2022-12-18T00:11:36.916Z,0.50
2022-12-18T00:14:04.705Z,0.40
2022-12-18T00:16:34.174Z,0.30
2022-12-18T00:19:02.302Z,0.30
2022-12-18T00:21:32.117Z,0.50
2022-12-18T00:24:00.547Z,0.20
2022-12-18T00:26:31.340Z,0.10
2022-12-18T00:29:05.801Z,0.10
2022-12-18T00:31:34.033Z,0.00
2022-12-18T00:34:02.941Z,-0.10
2022-12-18T00:36:33.636Z,-0.30
2022-12-18T00:39:03.604Z,-0.20
2022-12-18T00:41:50.227Z,1.70
2022-12-18T00:44:19.793Z,-0.30
2022-12-18T00:46:49.125Z,-0.30
2022-12-18T00:49:18.955Z,-0.40
2022-12-18T00:51:47.725Z,-3.20
2022-12-18T00:54:16.029Z,-0.50
2022-12-18T00:56:50.967Z,0.60
2022-12-18T00:59:19.892Z,-0.60
2022-12-18T01:01:48.382Z,-0.60
2022-12-18T01:04:16.561Z,-0.70
2022-12-18T01:06:47.017Z,-0.70
2022-12-18T01:09:14.895Z,-0.90
2022-12-18T01:11:43.495Z,-0.90
2022-12-18T01:14:12.544Z,-0.90
2022-12-18T01:16:40.439Z,-0.90
2022-12-18T01:19:08.270Z,-0.90
2022-12-18T01:21:36.019Z,0.20
2022-12-18T01:24:06.022Z,1.40
2022-12-18T01:26:34.452Z,-1.00
2022-12-18T01:29:02.088Z,-1.00
2022-12-18T01:31:33.262Z,-1.10
2022-12-18T01:34:05.470Z,-1.00
2022-12-18T01:36:35.711Z,-1.10
2022-12-18T01:39:07.140Z,-1.20
2022-12-18T01:41:54.885Z,-1.20
2022-12-18T01:44:57.034Z,-1.20
2022-12-18T01:47:40.411Z,-1.20
2022-12-18T01:50:24.574Z,-1.30
2022-12-18T01:52:59.138Z,-1.30
2022-12-18T01:55:31.238Z,-1.30
2022-12-18T01:58:01.513Z,-1.20
2022-12-18T02:00:30.295Z,-1.30
2022-12-18T02:06:36.248Z,-1.20
2022-12-18T02:09:24.768Z,-1.20
2022-12-18T02:12:12.177Z,-1.20
2022-12-18T02:14:44.678Z,-1.20
2022-12-18T02:17:21.940Z,-1.20
2022-12-18T02:20:20.516Z,-1.20
2022-12-18T02:23:31.168Z,-1.20
2022-12-18T02:26:14.350Z,-1.20
2022-12-18T02:29:04.055Z,-1.20
2022-12-18T02:31:38.050Z,-1.20
2022-12-18T02:34:09.109Z,-1.20
2022-12-18T02:36:44.957Z,-1.20
2022-12-18T02:39:14.884Z,-1.20
2022-12-18T02:41:53.294Z,-1.30
2022-12-18T02:44:23.274Z,-1.20
2022-12-18T02:46:55.015Z,-1.20
2022-12-18T02:49:32.275Z,-1.20
2022-12-18T02:52:19.544Z,-1.00
2022-12-18T02:55:11.168Z,-1.20
2022-12-18T02:58:06.737Z,-1.30
2022-12-18T03:00:54.212Z,-1.20
2022-12-18T03:03:44.663Z,-1.20
2022-12-18T03:06:21.670Z,-1.20
2022-12-18T03:08:55.109Z,-1.20
2022-12-18T03:11:45.546Z,-1.20
2022-12-18T03:14:18.737Z,-1.10
2022-12-18T03:16:52.209Z,-1.20
2022-12-18T03:19:25.281Z,-1.10
2022-12-18T03:21:57.743Z,-1.10
2022-12-18T03:24:29.289Z,-1.10
2022-12-18T03:27:09.410Z,-1.00
2022-12-18T03:29:54.491Z,-1.00
2022-12-18T03:32:44.548Z,-1.00
2022-12-18T03:35:19.501Z,-1.00
2022-12-18T03:37:47.761Z,-1.00
2022-12-18T03:40:17.085Z,-0.90
2022-12-18T03:43:10.116Z,-0.90
2022-12-18T03:45:43.516Z,-0.80
2022-12-18T03:48:21.205Z,-0.80
2022-12-18T03:51:03.171Z,-0.80
2022-12-18T03:53:55.822Z,-0.70
2022-12-18T03:56:32.036Z,-0.70
2022-12-18T03:59:02.635Z,-0.80
2022-12-18T04:01:35.211Z,-0.70
2022-12-18T04:04:05.372Z,-0.70
2022-12-18T04:06:37.151Z,-0.70
2022-12-18T04:09:06.085Z,-0.70
2022-12-18T04:11:37.881Z,-0.70
2022-12-18T04:14:09.163Z,-0.70
2022-12-18T04:16:38.700Z,-0.70
2022-12-18T04:19:09.849Z,-0.70
2022-12-18T04:21:41.799Z,0.20
2022-12-18T04:24:11.874Z,-0.70
2022-12-18T04:26:45.979Z,-0.60
2022-12-18T04:29:19.196Z,-0.60
2022-12-18T04:31:47.246Z,-0.60
2022-12-18T04:34:15.127Z,-0.60
2022-12-18T04:39:18.389Z,-0.60
2022-12-18T04:41:46.762Z,-0.50
2022-12-18T04:44:15.422Z,-0.50
2022-12-18T04:46:43.666Z,-0.50
2022-12-18T04:49:14.147Z,-0.50
2022-12-18T04:51:41.960Z,0.90
2022-12-18T04:54:09.838Z,-0.50
2022-12-18T04:56:37.715Z,-0.50
2022-12-18T04:59:05.888Z,-0.40
2022-12-18T05:01:35.311Z,-0.40
2022-12-18T05:04:05.155Z,-0.40
2022-12-18T05:06:32.826Z,-0.40
2022-12-18T05:09:00.596Z,-0.30
2022-12-18T05:11:28.379Z,-0.30
2022-12-18T05:13:56.062Z,-0.40
2022-12-18T05:18:51.544Z,-0.30
2022-12-18T05:21:19.128Z,-0.40
2022-12-18T05:23:46.980Z,-0.50
2022-12-18T05:26:19.740Z,-0.50
2022-12-18T05:28:47.964Z,-0.50
2022-12-18T05:31:16.207Z,-0.60
2022-12-18T05:33:44.092Z,-0.60
2022-12-18T05:36:12.377Z,-0.60
2022-12-18T05:38:40.775Z,-0.50
2022-12-18T05:41:09.581Z,-0.50
2022-12-18T05:43:39.407Z,-0.40
2022-12-18T05:46:10.021Z,-0.40
2022-12-18T05:48:37.900Z,-0.30
2022-12-18T05:51:08.401Z,-0.30
2022-12-18T05:53:38.004Z,-0.20
2022-12-18T05:56:08.683Z,-0.20
2022-12-18T05:58:36.636Z,-0.20
2022-12-18T06:01:17.279Z,-0.10
2022-12-18T06:03:45.723Z,-0.10
2022-12-18T06:06:16.318Z,-0.10
2022-12-18T06:08:46.429Z,0.00
2022-12-18T06:11:17.748Z,0.00
2022-12-18T06:13:47.544Z,-1.00
2022-12-18T06:16:15.628Z,0.10
2022-12-18T06:18:43.556Z,0.10
2022-12-18T06:21:11.531Z,0.40
2022-12-18T06:23:40.633Z,0.10
2022-12-18T06:26:10.220Z,0.20
2022-12-18T06:28:38.108Z,0.70
2022-12-18T06:31:06.800Z,0.20
2022-12-18T06:33:35.612Z,0.20
2022-12-18T06:36:14.551Z,0.20
2022-12-18T06:38:44.734Z,0.30
2022-12-18T06:41:21.160Z,0.30
2022-12-18T06:43:48.899Z,0.30
2022-12-18T06:46:16.968Z,2.50
2022-12-18T06:48:47.356Z,0.30
2022-12-18T06:51:20.930Z,0.30
2022-12-18T06:53:48.537Z,0.30
2022-12-18T06:56:16.533Z,0.30
2022-12-18T06:58:44.693Z,0.30
2022-12-18T07:01:13.753Z,0.30
2022-12-18T07:03:42.741Z,0.30
2022-12-18T07:06:16.972Z,2.60
2022-12-18T07:08:45.994Z,0.30
2022-12-18T07:11:14.021Z,0.30
2022-12-18T07:13:42.014Z,0.30
2022-12-18T07:16:18.317Z,0.30
2022-12-18T07:18:48.650Z,0.30
2022-12-18T07:21:18.966Z,0.30
2022-12-18T07:23:49.233Z,0.30
2022-12-18T07:26:20.124Z,0.30
2022-12-18T07:28:47.943Z,3.50
2022-12-18T07:31:18.614Z,0.30
2022-12-18T07:33:47.403Z,0.30
2022-12-18T07:36:15.467Z,0.30
2022-12-18T07:39:20.659Z,3.20
2022-12-18T07:42:08.572Z,0.30
2022-12-18T07:44:37.020Z,0.40
2022-12-18T07:47:09.156Z,0.40
2022-12-18T07:49:39.536Z,0.40
2022-12-18T07:52:07.192Z,0.30
2022-12-18T07:54:34.864Z,0.30
2022-12-18T07:57:02.432Z,-1.30
2022-12-18T07:59:30.149Z,2.50
2022-12-18T08:01:57.956Z,0.40
2022-12-18T08:04:26.456Z,0.40
2022-12-18T08:06:54.158Z,0.20
2022-12-18T08:11:50.085Z,0.40
2022-12-18T08:14:17.763Z,0.40
2022-12-18T08:16:45.413Z,3.30
2022-12-18T08:19:13.150Z,0.90
2022-12-18T08:21:40.903Z,0.50
2022-12-18T08:24:11.829Z,0.40
2022-12-18T08:26:39.703Z,0.50
2022-12-18T08:29:07.293Z,2.40
2022-12-18T08:31:35.375Z,0.50
2022-12-18T08:34:02.962Z,0.60
2022-12-18T08:36:30.599Z,0.60
2022-12-18T08:38:58.446Z,0.50
2022-12-18T08:41:26.560Z,0.60
2022-12-18T08:44:12.796Z,0.50
2022-12-18T08:46:43.490Z,0.50
2022-12-18T08:49:12.322Z,0.50
2022-12-18T08:51:40.704Z,0.60
2022-12-18T08:54:08.748Z,0.60
2022-12-18T08:56:36.564Z,0.60
2022-12-18T09:01:33.337Z,0.60
2022-12-18T09:04:02.187Z,1.40
2022-12-18T09:06:29.786Z,0.60
2022-12-18T09:08:58.811Z,0.60
2022-12-18T09:11:28.702Z,0.70
2022-12-18T09:13:57.897Z,0.50
2022-12-18T09:16:31.995Z,2.90
2022-12-18T09:19:01.097Z,0.70
2022-12-18T09:21:36.743Z,0.70
2022-12-18T09:24:09.045Z,0.70
2022-12-18T09:26:37.481Z,0.70
2022-12-18T09:29:05.678Z,0.80
2022-12-18T09:31:33.548Z,0.80
2022-12-18T09:34:01.400Z,0.70
2022-12-18T09:36:29.259Z,0.80
2022-12-18T09:38:57.004Z,0.80
2022-12-18T09:41:42.607Z,0.90
2022-12-18T09:44:17.691Z,0.90
2022-12-18T09:46:49.659Z,1.00
2022-12-18T09:49:20.700Z,0.90
2022-12-18T09:51:55.645Z,1.00
2022-12-18T09:54:44.741Z,3.70
2022-12-18T09:57:16.807Z,1.10
2022-12-18T09:59:51.693Z,1.10
2022-12-18T10:02:28.007Z,3.20
2022-12-18T10:05:05.621Z,1.20
2022-12-18T10:07:42.247Z,1.20
2022-12-18T10:10:31.713Z,1.20
2022-12-18T10:13:24.103Z,1.20
2022-12-18T10:15:52.400Z,1.20
2022-12-18T10:18:22.123Z,1.20
2022-12-18T10:20:58.259Z,1.20
2022-12-18T10:23:45.090Z,1.30
2022-12-18T10:26:16.445Z,1.20
2022-12-18T10:28:45.265Z,1.30
2022-12-18T10:31:19.408Z,1.30
2022-12-18T10:33:47.330Z,1.40
2022-12-18T10:36:15.440Z,1.40
2022-12-18T10:38:43.800Z,1.40
2022-12-18T10:41:23.090Z,1.40
2022-12-18T10:44:17.468Z,1.50
2022-12-18T10:46:57.186Z,1.50
2022-12-18T10:49:30.616Z,1.50
2022-12-18T10:52:21.965Z,1.50
2022-12-18T10:54:59.934Z,1.60
2022-12-18T10:57:27.474Z,1.60
2022-12-18T10:59:57.320Z,2.90
2022-12-18T11:02:40.336Z,1.60
2022-12-18T11:05:38.020Z,1.70
2022-12-18T11:08:05.652Z,1.80
2022-12-18T11:10:48.164Z,1.70
2022-12-18T11:13:21.819Z,1.80
2022-12-18T11:15:50.566Z,2.10
2022-12-18T11:18:30.661Z,1.90
2022-12-18T11:21:07.187Z,1.90
2022-12-18T11:23:36.497Z,2.00
2022-12-18T11:26:07.089Z,3.40
2022-12-18T11:28:53.907Z,2.10
2022-12-18T11:31:32.699Z,2.10
2022-12-18T11:34:27.443Z,4.60
2022-12-18T11:36:49.158Z,2.20
2022-12-18T11:39:32.283Z,2.10
2022-12-18T11:42:17.669Z,2.20
2022-12-18T11:45:14.342Z,2.20
2022-12-18T11:48:16.133Z,2.20
2022-12-18T11:50:58.375Z,2.20
2022-12-18T11:53:29.362Z,2.20
2022-12-18T11:56:16.905Z,2.10
2022-12-18T11:59:13.429Z,2.10
2022-12-18T12:01:47.299Z,2.10
2022-12-18T12:04:35.302Z,2.10
2022-12-18T12:07:27.556Z,2.10
2022-12-18T12:10:11.259Z,0.60
2022-12-18T12:12:50.504Z,2.10
2022-12-18T12:15:32.052Z,2.10
2022-12-18T12:18:27.034Z,2.10
2022-12-18T12:21:13.578Z,1.60
2022-12-18T12:24:01.205Z,2.10
2022-12-18T12:26:48.996Z,2.10
2022-12-18T12:29:44.209Z,2.10
2022-12-18T12:32:42.341Z,2.10
2022-12-18T12:35:37.916Z,2.10
2022-12-18T12:41:33.141Z,2.10
2022-12-18T12:44:07.117Z,2.10
2022-12-18T12:49:49.971Z,2.00
2022-12-18T12:52:28.391Z,2.00
2022-12-18T12:54:58.078Z,2.00
2022-12-18T12:57:35.387Z,2.10
2022-12-18T13:00:20.373Z,2.80
2022-12-18T13:03:10.155Z,2.00
2022-12-18T13:05:59.644Z,2.10
2022-12-18T13:08:33.912Z,2.10
2022-12-18T13:11:21.918Z,2.10
2022-12-18T13:13:56.197Z,2.10
2022-12-18T13:16:28.628Z,2.10
2022-12-18T13:19:00.328Z,2.10
2022-12-18T13:21:44.421Z,2.10
2022-12-18T13:24:31.983Z,2.10
2022-12-18T13:29:47.435Z,2.00
2022-12-18T13:32:26.718Z,2.00
2022-12-18T13:35:23.879Z,2.00
2022-12-18T13:37:56.163Z,2.00
2022-12-18T13:40:57.196Z,2.00
2022-12-18T13:43:31.732Z,2.00
2022-12-18T13:46:30.304Z,2.00
2022-12-18T13:49:05.563Z,2.00
2022-12-18T13:51:36.277Z,2.00
2022-12-18T13:54:33.864Z,2.00
2022-12-18T13:57:02.552Z,2.00
2022-12-18T13:59:41.767Z,0.70
2022-12-18T14:02:23.577Z,2.00
2022-12-18T14:04:52.308Z,2.00
2022-12-18T14:07:21.140Z,2.00
2022-12-18T14:10:06.442Z,2.00
2022-12-18T14:13:01.128Z,2.00
2022-12-18T14:15:42.093Z,2.00
2022-12-18T14:18:24.109Z,2.00
2022-12-18T14:20:54.325Z,2.00
2022-12-18T14:23:42.295Z,2.00
2022-12-18T14:26:26.404Z,2.00
2022-12-18T14:28:54.939Z,4.50
2022-12-18T14:31:32.965Z,2.00
2022-12-18T14:34:00.756Z,2.00
2022-12-18T14:36:29.785Z,2.10
2022-12-18T14:38:59.561Z,2.10
2022-12-18T14:41:27.653Z,2.10
2022-12-18T14:43:56.635Z,2.10
2022-12-18T14:46:36.427Z,2.10
2022-12-18T14:49:24.873Z,2.10
2022-12-18T14:51:56.642Z,2.20
2022-12-18T14:54:27.226Z,2.20
2022-12-18T14:57:06.238Z,2.20
2022-12-18T14:59:34.320Z,2.20
2022-12-18T15:02:26.529Z,2.30
2022-12-18T15:05:30.576Z,2.30
2022-12-18T15:08:01.144Z,2.30
2022-12-18T15:10:31.353Z,2.30
2022-12-18T15:13:00.980Z,2.30
2022-12-18T15:15:35.286Z,2.40
2022-12-18T15:18:09.482Z,2.30
2022-12-18T15:20:56.230Z,2.30
2022-12-18T15:23:27.605Z,2.30
2022-12-18T15:26:07.022Z,4.40
2022-12-18T15:28:53.220Z,2.40
2022-12-18T15:31:33.328Z,2.40
2022-12-18T15:34:09.062Z,2.50
2022-12-18T15:36:37.589Z,2.50
2022-12-18T15:39:06.848Z,2.50
2022-12-18T15:41:37.171Z,2.60
2022-12-18T15:44:25.848Z,2.60
2022-12-18T15:46:53.797Z,2.70
2022-12-18T15:49:21.654Z,2.70
2022-12-18T15:51:59.330Z,2.80
2022-12-18T15:57:31.010Z,2.90
2022-12-18T15:59:59.563Z,-0.20
2022-12-18T16:02:29.090Z,2.90
2022-12-18T16:04:58.708Z,4.30
2022-12-18T16:07:29.148Z,3.00
2022-12-18T16:09:57.610Z,3.10
2022-12-18T16:12:26.990Z,3.10
2022-12-18T16:14:54.920Z,3.10
2022-12-18T16:17:22.964Z,3.20
2022-12-18T16:19:50.911Z,3.10
2022-12-18T16:22:29.214Z,3.20
2022-12-18T16:24:58.015Z,3.20
2022-12-18T16:27:26.213Z,4.30
2022-12-18T16:29:53.943Z,3.30
2022-12-18T16:32:23.332Z,3.30
2022-12-18T16:34:51.442Z,3.40
2022-12-18T16:37:19.039Z,3.30
2022-12-18T16:39:46.728Z,3.40
2022-12-18T16:42:20.856Z,3.40
2022-12-18T16:44:50.128Z,3.40
2022-12-18T16:47:18.366Z,3.50
2022-12-18T16:49:46.559Z,3.50
2022-12-18T16:52:14.473Z,3.50
2022-12-18T16:54:41.959Z,3.60
2022-12-18T16:57:14.503Z,3.60
2022-12-18T16:59:42.455Z,3.60
2022-12-18T17:02:21.810Z,3.60
2022-12-18T17:04:54.972Z,3.70
2022-12-18T17:07:23.372Z,3.60
2022-12-18T17:09:51.278Z,3.70
2022-12-18T17:12:18.844Z,3.70
2022-12-18T17:14:46.570Z,3.70
2022-12-18T17:17:23.298Z,3.80
2022-12-18T17:19:52.731Z,3.70
2022-12-18T17:22:21.671Z,3.70
2022-12-18T17:24:49.396Z,4.60
2022-12-18T17:27:16.973Z,3.80
2022-12-18T17:29:48.264Z,3.80
2022-12-18T17:32:17.888Z,3.90
2022-12-18T17:34:45.588Z,3.90
2022-12-18T17:37:13.843Z,3.90
2022-12-18T17:39:42.214Z,3.90
2022-12-18T17:42:15.744Z,4.00
2022-12-18T17:44:44.117Z,4.00
2022-12-18T17:47:13.832Z,4.00
2022-12-18T17:49:41.495Z,4.00
2022-12-18T17:52:09.415Z,4.10
2022-12-18T17:54:40.068Z,4.10
2022-12-18T17:57:08.052Z,4.10
2022-12-18T17:59:35.802Z,4.10
2022-12-18T18:02:03.790Z,4.20
2022-12-18T18:07:00.483Z,4.20
2022-12-18T18:09:28.298Z,4.20
2022-12-18T18:12:15.912Z,4.30
2022-12-18T18:14:43.898Z,4.30
2022-12-18T18:17:12.034Z,4.30
2022-12-18T18:22:08.356Z,4.40
2022-12-18T18:24:35.898Z,4.40
2022-12-18T18:27:03.580Z,4.40
2022-12-18T18:29:31.439Z,4.50
2022-12-18T18:31:59.731Z,4.50
2022-12-18T18:34:31.712Z,4.60
2022-12-18T18:37:02.003Z,4.60
2022-12-18T18:39:29.809Z,4.60
2022-12-18T18:41:57.592Z,4.70
2022-12-18T18:44:26.017Z,4.70
2022-12-18T18:46:58.412Z,4.70
2022-12-18T18:49:28.068Z,4.80
2022-12-18T18:51:57.504Z,4.80
2022-12-18T18:54:27.284Z,4.80
2022-12-18T18:59:42.844Z,4.90
2022-12-18T19:02:15.785Z,5.00
2022-12-18T19:04:45.622Z,5.00
2022-12-18T19:09:32.786Z,5.00
2022-12-18T19:12:19.057Z,5.20
2022-12-18T19:14:46.854Z,5.20
2022-12-18T19:17:14.453Z,5.20
2022-12-18T19:19:43.038Z,5.20
2022-12-18T19:22:11.284Z,5.20
2022-12-18T19:24:39.457Z,5.30
2022-12-18T19:27:07.486Z,2.30
2022-12-18T19:29:35.198Z,5.40
2022-12-18T19:32:04.913Z,5.40
2022-12-18T19:34:32.691Z,5.40
2022-12-18T19:37:00.556Z,5.40
2022-12-18T19:39:28.329Z,5.40
2022-12-18T19:41:56.083Z,5.40
2022-12-18T19:44:23.985Z,5.50
2022-12-18T19:46:51.943Z,5.50
2022-12-18T19:49:19.589Z,5.50
2022-12-18T19:51:47.356Z,5.50
2022-12-18T19:54:18.066Z,5.50
2022-12-18T20:02:27.565Z,5.80
2022-12-18T20:04:55.361Z,5.90
2022-12-18T20:07:22.909Z,6.00
2022-12-18T20:09:55.331Z,6.10
2022-12-18T20:12:27.845Z,6.10
2022-12-18T20:14:57.045Z,6.10
2022-12-18T20:17:24.708Z,6.00
2022-12-18T20:22:21.873Z,6.30
2022-12-18T20:24:49.503Z,6.40
2022-12-18T20:27:19.582Z,6.40
2022-12-18T20:29:48.862Z,6.50
2022-12-18T20:32:17.358Z,6.50
2022-12-18T20:34:44.993Z,6.50
2022-12-18T20:37:13.138Z,6.60
2022-12-18T20:39:41.029Z,4.80
2022-12-18T20:42:09.423Z,6.70
2022-12-18T20:44:37.494Z,6.70
2022-12-18T20:47:08.434Z,6.80
2022-12-18T20:52:07.274Z,6.80
2022-12-18T20:54:35.315Z,6.80
2022-12-18T20:57:02.974Z,6.90
2022-12-18T20:59:31.112Z,6.90
2022-12-18T21:01:59.675Z,6.90
2022-12-18T21:04:27.721Z,7.00
2022-12-18T21:07:02.342Z,7.00
2022-12-18T21:09:37.667Z,7.00
2022-12-18T21:12:30.203Z,7.00
2022-12-18T21:15:07.815Z,7.10
2022-12-18T21:17:44.210Z,7.10
2022-12-18T21:20:17.570Z,7.20
2022-12-18T21:22:47.572Z,7.20
2022-12-18T21:25:16.290Z,7.20
2022-12-18T21:30:14.080Z,7.20
2022-12-18T21:32:41.991Z,7.30
2022-12-18T21:35:09.898Z,7.20
2022-12-18T21:37:37.740Z,7.30
2022-12-18T21:40:06.320Z,7.30
2022-12-18T21:42:52.352Z,7.40
2022-12-18T21:45:20.209Z,7.40
2022-12-18T21:47:47.895Z,7.40
2022-12-18T21:50:15.813Z,7.50
2022-12-18T21:52:43.550Z,7.50
2022-12-18T21:55:11.390Z,7.50
2022-12-18T21:57:39.562Z,7.50
2022-12-18T22:00:17.422Z,7.50
2022-12-18T22:02:48.766Z,7.50
2022-12-18T22:05:36.279Z,7.60
2022-12-18T22:08:04.013Z,7.60
2022-12-18T22:10:32.213Z,7.60
2022-12-18T22:13:00.037Z,7.60
2022-12-18T22:15:27.862Z,7.60
2022-12-18T22:18:00.288Z,7.70
2022-12-18T22:20:29.957Z,7.60
2022-12-18T22:25:31.976Z,7.80
2022-12-18T22:28:18.168Z,7.80
2022-12-18T22:30:45.817Z,7.80
2022-12-18T22:35:41.309Z,7.90
2022-12-18T22:38:10.000Z,7.90
2022-12-18T22:40:37.625Z,7.90
2022-12-18T22:43:05.749Z,7.80
2022-12-18T22:45:34.139Z,7.90
2022-12-18T22:48:06.356Z,7.90
2022-12-18T22:50:33.914Z,7.90
2022-12-18T22:53:01.619Z,7.90
2022-12-18T22:55:29.236Z,7.90
2022-12-18T22:57:57.041Z,7.90
2022-12-18T23:00:24.920Z,8.00
2022-12-18T23:03:00.341Z,8.00
2022-12-18T23:05:30.769Z,8.00
2022-12-18T23:07:59.159Z,8.00
2022-12-18T23:10:27.359Z,8.10
2022-12-18T23:12:55.056Z,8.10
2022-12-18T23:15:27.615Z,8.20
2022-12-18T23:18:02.113Z,8.20
2022-12-18T23:20:29.789Z,8.20
2022-12-18T23:22:57.470Z,8.30
2022-12-18T23:25:25.235Z,8.30
2022-12-18T23:27:52.917Z,8.30
2022-12-18T23:30:20.595Z,8.40
2022-12-18T23:32:48.473Z,8.50
2022-12-18T23:35:17.339Z,8.60
2022-12-18T23:38:02.363Z,8.60
2022-12-18T23:40:30.303Z,8.70
2022-12-18T23:42:59.488Z,8.70
2022-12-18T23:45:27.079Z,8.80
2022-12-18T23:50:24.039Z,8.80
2022-12-18T23:52:57.648Z,8.80
2022-12-18T23:55:32.830Z,8.80
2022-12-18T23:58:00.296Z,8.90
